createdAt,value
2018-10-12T00:01:26.453Z,24.70
2018-10-12T00:03:57.485Z,41.90
2018-10-12T00:06:28.379Z,31.90
2018-10-12T00:08:59.339Z,21.33
2018-10-12T00:11:29.918Z,23.03
2018-10-12T00:14:00.617Z,20.87
2018-10-12T00:16:31.352Z,23.20
2018-10-12T00:19:02.261Z,22.10
2018-10-12T00:21:33.833Z,20.30
2018-10-12T00:24:04.680Z,20.40
2018-10-12T00:26:35.356Z,20.53
2018-10-12T00:29:06.252Z,21.43
2018-10-12T00:31:36.875Z,25.17
2018-10-12T00:34:07.633Z,21.90
2018-10-12T00:36:38.554Z,24.97
2018-10-12T00:39:09.888Z,21.63
2018-10-12T00:41:40.565Z,22.77
2018-10-12T00:44:11.268Z,22.90
2018-10-12T00:46:42.000Z,25.00
2018-10-12T00:49:12.772Z,22.40
2018-10-12T00:51:43.577Z,20.60
2018-10-12T00:54:14.319Z,22.10
2018-10-12T00:56:45.527Z,20.03
2018-10-12T00:59:16.155Z,20.70
2018-10-12T01:01:46.860Z,20.83
2018-10-12T01:04:17.676Z,20.90
2018-10-12T01:06:48.646Z,21.93
2018-10-12T01:09:19.271Z,19.77
2018-10-12T01:11:50.235Z,22.63
2018-10-12T01:14:21.175Z,19.70
2018-10-12T01:17:08.643Z,19.23
2018-10-12T01:19:39.600Z,18.50
2018-10-12T01:22:10.383Z,21.67
2018-10-12T01:24:41.169Z,21.93
2018-10-12T01:27:11.922Z,19.17
2018-10-12T01:29:42.672Z,23.37
2018-10-12T01:32:18.200Z,19.67
2018-10-12T01:34:48.994Z,23.10
2018-10-12T01:37:19.736Z,21.53
2018-10-12T01:39:50.969Z,22.23
2018-10-12T01:42:22.376Z,25.17
2018-10-12T01:44:54.106Z,22.30
2018-10-12T01:47:24.805Z,24.30
2018-10-12T01:49:55.865Z,23.17
2018-10-12T01:52:26.536Z,22.53
2018-10-12T01:54:57.295Z,24.97
2018-10-12T01:57:28.060Z,27.23
2018-10-12T01:59:58.833Z,21.00
2018-10-12T02:02:29.726Z,24.90
2018-10-12T02:05:00.520Z,24.47
2018-10-12T02:07:31.269Z,23.57
2018-10-12T02:10:02.000Z,25.00
2018-10-12T02:12:32.908Z,28.23
2018-10-12T02:15:03.780Z,27.53
2018-10-12T02:17:34.728Z,26.37
2018-10-12T02:20:05.425Z,27.93
2018-10-12T02:22:36.556Z,23.23
2018-10-12T02:25:08.430Z,29.47
2018-10-12T02:27:39.361Z,25.03
2018-10-12T02:30:10.993Z,24.50
2018-10-12T02:32:41.762Z,25.27
2018-10-12T02:35:12.479Z,26.30
2018-10-12T02:37:43.222Z,25.57
2018-10-12T02:40:14.145Z,30.70
2018-10-12T02:42:44.941Z,29.87
2018-10-12T02:45:15.627Z,29.13
2018-10-12T02:47:46.356Z,31.47
2018-10-12T02:50:17.253Z,30.43
2018-10-12T02:52:47.905Z,32.90
2018-10-12T02:55:18.650Z,28.33
2018-10-12T02:57:49.392Z,37.90
2018-10-12T03:00:20.303Z,34.63
2018-10-12T03:02:51.003Z,31.90
2018-10-12T03:05:21.825Z,36.93
2018-10-12T03:07:52.613Z,34.33
2018-10-12T03:10:23.471Z,34.70
2018-10-12T03:12:54.400Z,35.97
2018-10-12T03:15:25.261Z,37.97
2018-10-12T03:17:56.292Z,37.37
2018-10-12T03:20:27.260Z,39.13
2018-10-12T03:22:58.070Z,42.60
2018-10-12T03:25:29.072Z,38.00
2018-10-12T03:28:16.240Z,38.23
2018-10-12T03:30:47.162Z,34.77
2018-10-12T03:33:17.945Z,36.97
2018-10-12T03:35:49.433Z,36.23
2018-10-12T03:38:20.164Z,41.43
2018-10-12T03:40:50.966Z,43.07
2018-10-12T03:43:21.700Z,58.97
2018-10-12T03:45:52.449Z,42.33
2018-10-12T03:48:23.322Z,42.70
2018-10-12T03:50:54.296Z,39.27
2018-10-12T03:53:25.304Z,34.47
2018-10-12T03:55:56.097Z,38.90
2018-10-12T03:58:26.784Z,36.87
2018-10-12T04:01:04.171Z,33.20
2018-10-12T04:03:36.004Z,32.57
2018-10-12T04:06:06.913Z,36.13
2018-10-12T04:08:37.825Z,33.40
2018-10-12T04:11:09.004Z,37.63
2018-10-12T04:13:39.803Z,38.33
2018-10-12T04:16:10.815Z,43.20
2018-10-12T04:18:41.955Z,41.07
2018-10-12T04:21:13.040Z,40.53
2018-10-12T04:23:44.119Z,40.87
2018-10-12T04:26:14.948Z,42.53
2018-10-12T04:28:45.781Z,38.27
2018-10-12T04:31:16.441Z,39.37
2018-10-12T04:33:47.151Z,39.67
2018-10-12T04:36:17.930Z,38.73
2018-10-12T04:39:05.743Z,38.17
2018-10-12T04:41:36.703Z,40.57
2018-10-12T04:44:08.056Z,37.70
2018-10-12T04:46:43.129Z,37.60
2018-10-12T04:49:16.916Z,42.90
2018-10-12T04:52:02.361Z,44.57
2018-10-12T04:54:33.140Z,42.17
2018-10-12T04:57:04.297Z,47.27
2018-10-12T04:59:34.927Z,50.07
2018-10-12T05:02:07.557Z,48.97
2018-10-12T05:04:38.556Z,48.03
2018-10-12T05:07:09.569Z,49.83
2018-10-12T05:09:40.615Z,51.30
2018-10-12T05:12:11.375Z,60.67
2018-10-12T05:14:42.193Z,51.73
2018-10-12T05:17:13.199Z,46.33
2018-10-12T05:19:43.906Z,43.87
2018-10-12T05:22:14.770Z,42.17
2018-10-12T05:24:45.602Z,41.83
2018-10-12T05:27:16.499Z,40.93
2018-10-12T05:29:47.318Z,40.73
2018-10-12T05:32:18.558Z,43.37
2018-10-12T05:34:49.363Z,43.17
2018-10-12T05:37:20.329Z,41.53
2018-10-12T05:39:51.070Z,41.23
2018-10-12T05:42:21.778Z,38.13
2018-10-12T05:44:52.571Z,39.40
2018-10-12T05:47:23.368Z,40.70
2018-10-12T05:50:05.153Z,39.27
2018-10-12T05:52:37.045Z,39.57
2018-10-12T05:55:08.212Z,40.30
2018-10-12T05:57:42.365Z,40.10
2018-10-12T06:00:14.213Z,37.83
2018-10-12T06:02:45.108Z,36.90
2018-10-12T06:05:15.990Z,33.20
2018-10-12T06:07:47.338Z,31.33
2018-10-12T06:10:18.262Z,35.40
2018-10-12T06:12:49.245Z,40.50
2018-10-12T06:15:20.401Z,35.00
2018-10-12T06:17:51.306Z,29.93
2018-10-12T06:20:23.023Z,30.17
2018-10-12T06:22:54.063Z,26.60
2018-10-12T06:25:24.937Z,27.87
2018-10-12T06:27:55.857Z,27.60
2018-10-12T06:30:26.650Z,28.77
2018-10-12T06:32:57.490Z,25.57
2018-10-12T06:35:28.917Z,25.33
2018-10-12T06:38:00.489Z,26.57
2018-10-12T06:40:32.060Z,26.47
2018-10-12T06:43:03.054Z,25.60
2018-10-12T06:45:33.941Z,28.90
2018-10-12T06:48:05.057Z,24.40
2018-10-12T06:50:36.547Z,27.50
2018-10-12T06:53:07.822Z,24.57
2018-10-12T06:55:39.153Z,23.40
2018-10-12T06:58:10.509Z,26.23
2018-10-12T07:00:42.184Z,24.10
2018-10-12T07:03:22.121Z,23.83
2018-10-12T07:05:53.407Z,28.27
2018-10-12T07:08:24.667Z,24.37
2018-10-12T07:10:55.475Z,23.83
2018-10-12T07:13:26.186Z,24.73
2018-10-12T07:15:57.092Z,23.77
2018-10-12T07:18:28.001Z,25.60
2018-10-12T07:20:59.749Z,25.20
2018-10-12T07:23:30.257Z,24.23
2018-10-12T07:26:02.417Z,24.17
2018-10-12T07:28:33.547Z,25.23
2018-10-12T07:31:05.429Z,24.03
2018-10-12T07:33:36.461Z,24.83
2018-10-12T07:36:07.625Z,23.70
2018-10-12T07:38:38.315Z,23.67
2018-10-12T07:41:09.534Z,21.47
2018-10-12T07:43:40.581Z,21.23
2018-10-12T07:46:11.893Z,21.97
2018-10-12T07:48:42.709Z,23.57
2018-10-12T07:51:13.753Z,20.47
2018-10-12T07:53:44.748Z,19.80
2018-10-12T07:56:15.975Z,20.13
2018-10-12T07:58:47.296Z,19.50
2018-10-12T08:01:18.483Z,19.87
2018-10-12T08:03:49.391Z,20.57
2018-10-12T08:06:20.595Z,20.30
2018-10-12T08:08:51.816Z,18.90
2018-10-12T08:11:23.111Z,21.77
2018-10-12T08:13:54.166Z,21.50
2018-10-12T08:16:25.133Z,19.53
2018-10-12T08:18:56.198Z,20.40
2018-10-12T08:21:27.063Z,19.43
2018-10-12T08:23:57.939Z,18.63
2018-10-12T08:26:29.268Z,19.30
2018-10-12T08:29:00.178Z,19.33
2018-10-12T08:31:32.215Z,19.13
2018-10-12T08:34:03.473Z,18.17
2018-10-12T08:36:34.707Z,18.10
2018-10-12T08:39:08.429Z,18.20
2018-10-12T08:41:39.304Z,17.70
2018-10-12T08:44:10.165Z,17.77
2018-10-12T08:46:40.961Z,16.43
2018-10-12T08:49:11.768Z,16.87
2018-10-12T08:51:42.461Z,15.27
2018-10-12T08:54:13.212Z,17.43
2018-10-12T08:56:44.027Z,16.33
2018-10-12T08:59:14.985Z,15.23
2018-10-12T09:01:45.852Z,16.33
2018-10-12T09:04:16.735Z,15.33
2018-10-12T09:06:47.972Z,15.60
2018-10-12T09:09:18.819Z,15.70
2018-10-12T09:11:49.729Z,15.33
2018-10-12T09:14:20.459Z,15.03
2018-10-12T09:16:51.322Z,15.10
2018-10-12T09:19:22.045Z,15.43
2018-10-12T09:21:53.819Z,14.23
2018-10-12T09:24:25.583Z,14.30
2018-10-12T09:26:57.185Z,14.43
2018-10-12T09:29:28.092Z,14.90
2018-10-12T09:31:59.638Z,15.07
2018-10-12T09:34:30.355Z,14.90
2018-10-12T09:37:02.287Z,14.73
2018-10-12T09:39:33.099Z,14.70
2018-10-12T09:42:04.009Z,14.23
2018-10-12T09:44:34.806Z,14.30
2018-10-12T09:47:05.606Z,13.80
2018-10-12T09:49:36.532Z,13.43
2018-10-12T09:52:07.389Z,13.60
2018-10-12T09:54:38.017Z,12.70
2018-10-12T09:57:14.277Z,13.27
2018-10-12T09:59:45.328Z,13.00
2018-10-12T10:02:21.823Z,13.90
2018-10-12T10:04:52.969Z,12.87
2018-10-12T10:07:23.884Z,13.40
2018-10-12T10:09:54.576Z,14.33
2018-10-12T10:12:25.534Z,13.43
2018-10-12T10:14:56.324Z,14.03
2018-10-12T10:17:27.154Z,12.17
2018-10-12T10:19:58.205Z,12.70
2018-10-12T10:22:29.471Z,11.70
2018-10-12T10:25:00.310Z,11.70
2018-10-12T10:27:31.223Z,11.63
2018-10-12T10:30:02.493Z,11.50
2018-10-12T10:32:33.371Z,11.80
2018-10-12T10:35:04.540Z,12.97
2018-10-12T10:37:37.141Z,11.47
2018-10-12T10:40:08.358Z,12.03
2018-10-12T10:42:39.383Z,13.00
2018-10-12T10:45:11.175Z,12.27
2018-10-12T10:47:42.674Z,11.07
2018-10-12T10:50:14.048Z,11.10
2018-10-12T10:52:45.296Z,11.00
2018-10-12T10:55:16.425Z,10.53
2018-10-12T10:57:47.317Z,11.73
2018-10-12T11:00:18.244Z,10.20
2018-10-12T11:02:49.305Z,10.63
2018-10-12T11:05:20.308Z,10.13
2018-10-12T11:07:51.367Z,11.97
2018-10-12T11:10:22.385Z,9.87
2018-10-12T11:12:53.276Z,10.27
2018-10-12T11:15:24.243Z,9.77
2018-10-12T11:17:55.346Z,13.13
2018-10-12T11:20:26.375Z,10.37
2018-10-12T11:22:57.483Z,9.57
2018-10-12T11:25:28.992Z,9.63
2018-10-12T11:27:59.921Z,8.97
2018-10-12T11:30:31.539Z,8.70
2018-10-12T11:33:03.664Z,9.63
2018-10-12T11:35:34.736Z,9.43
2018-10-12T11:38:05.861Z,9.30
2018-10-12T11:40:36.915Z,9.37
2018-10-12T11:43:23.260Z,8.65
2018-10-12T11:45:55.182Z,9.93
2018-10-12T11:48:25.874Z,8.80
2018-10-12T11:50:57.331Z,7.87
2018-10-12T11:53:28.169Z,9.10
2018-10-12T11:55:58.917Z,9.63
2018-10-12T11:58:29.939Z,8.98
2018-10-12T12:01:01.008Z,8.60
2018-10-12T12:03:31.909Z,9.15
2018-10-12T12:06:02.731Z,8.70
2018-10-12T12:08:34.311Z,9.00
2018-10-12T12:11:05.049Z,9.25
2018-10-12T12:13:36.185Z,8.83
2018-10-12T12:16:07.497Z,9.45
2018-10-12T12:18:39.019Z,9.05
2018-10-12T12:21:11.530Z,8.83
2018-10-12T12:23:42.310Z,9.28
2018-10-12T12:26:13.284Z,10.13
2018-10-12T12:28:45.172Z,8.78
2018-10-12T12:31:15.865Z,9.18
2018-10-12T12:33:47.173Z,8.90
2018-10-12T12:36:18.472Z,9.17
2018-10-12T12:38:49.821Z,8.70
2018-10-12T12:41:20.728Z,8.60
2018-10-12T12:43:51.888Z,9.10
2018-10-12T12:46:23.855Z,8.77
2018-10-12T12:48:55.518Z,9.80
2018-10-12T12:51:26.181Z,9.60
2018-10-12T12:53:57.537Z,12.20
2018-10-12T12:56:28.837Z,9.40
2018-10-12T12:58:59.821Z,8.43
2018-10-12T13:01:30.687Z,9.17
2018-10-12T13:04:01.639Z,8.93
2018-10-12T13:06:32.975Z,8.70
2018-10-12T13:09:05.167Z,8.73
2018-10-12T13:11:36.301Z,8.83
2018-10-12T13:14:07.514Z,9.70
2018-10-12T13:16:39.024Z,8.20
2018-10-12T13:19:10.028Z,8.20
2018-10-12T13:21:42.606Z,8.57
2018-10-12T13:24:13.936Z,7.60
2018-10-12T13:26:45.088Z,8.07
2018-10-12T13:29:16.094Z,10.17
2018-10-12T13:31:47.370Z,8.33
2018-10-12T13:34:18.572Z,8.57
2018-10-12T13:36:49.541Z,8.40
2018-10-12T13:39:20.667Z,7.63
2018-10-12T13:41:51.655Z,7.80
2018-10-12T13:44:23.218Z,7.70
2018-10-12T13:46:55.255Z,7.97
2018-10-12T13:49:26.544Z,8.00
2018-10-12T13:51:57.656Z,7.50
2018-10-12T13:54:28.776Z,8.00
2018-10-12T13:57:01.291Z,7.77
2018-10-12T13:59:32.662Z,7.10
2018-10-12T14:02:04.562Z,6.73
2018-10-12T14:04:35.764Z,7.00
2018-10-12T14:07:06.732Z,9.20
2018-10-12T14:09:37.868Z,6.77
2018-10-12T14:12:10.780Z,6.80
2018-10-12T14:14:42.801Z,7.17
2018-10-12T14:17:15.032Z,6.53
2018-10-12T14:19:46.261Z,7.00
2018-10-12T14:22:17.168Z,6.47
2018-10-12T14:24:48.473Z,6.53
2018-10-12T14:27:20.070Z,7.20
2018-10-12T14:29:51.868Z,7.00
2018-10-12T14:32:27.272Z,7.90
2018-10-12T14:34:58.613Z,7.40
2018-10-12T14:37:29.864Z,9.40
2018-10-12T14:40:02.206Z,7.30
2018-10-12T14:42:33.771Z,6.63
2018-10-12T14:45:05.413Z,6.97
2018-10-12T14:47:37.219Z,7.03
2018-10-12T14:50:08.495Z,7.40
2018-10-12T14:52:39.730Z,7.63
2018-10-12T14:55:11.083Z,6.60
2018-10-12T14:57:42.226Z,7.20
2018-10-12T15:00:15.060Z,7.50
2018-10-12T15:02:46.928Z,10.93
2018-10-12T15:05:20.817Z,8.03
2018-10-12T15:07:52.831Z,7.83
2018-10-12T15:10:26.999Z,8.57
2018-10-12T15:12:58.398Z,7.10
2018-10-12T15:15:32.073Z,6.90
2018-10-12T15:18:03.381Z,7.80
2018-10-12T15:20:35.315Z,7.30
2018-10-12T15:23:07.352Z,8.30
2018-10-12T15:25:40.772Z,6.73
2018-10-12T15:28:13.664Z,8.37
2018-10-12T15:30:47.120Z,7.03
2018-10-12T15:33:22.397Z,7.27
2018-10-12T15:35:55.856Z,7.30
2018-10-12T15:38:28.608Z,8.00
2018-10-12T15:41:00.676Z,7.10
2018-10-12T15:43:34.670Z,8.20
2018-10-12T15:46:08.888Z,6.60
2018-10-12T15:48:41.408Z,6.70
2018-10-12T15:51:13.958Z,6.73
2018-10-12T15:53:46.291Z,9.03
2018-10-12T15:56:18.694Z,7.33
2018-10-12T15:58:50.849Z,6.60
2018-10-12T16:01:24.303Z,6.67
2018-10-12T16:03:56.846Z,6.40
2018-10-12T16:06:29.314Z,8.57
2018-10-12T16:09:02.314Z,8.03
2018-10-12T16:11:34.842Z,7.23
2018-10-12T16:14:07.078Z,8.30
2018-10-12T16:16:39.424Z,11.67
2018-10-12T16:19:11.798Z,9.00
2018-10-12T16:21:44.232Z,8.00
2018-10-12T16:24:16.701Z,9.03
2018-10-12T16:26:49.090Z,9.63
2018-10-12T16:29:21.681Z,9.17
2018-10-12T16:31:54.666Z,9.13
2018-10-12T16:34:26.983Z,9.03
2018-10-12T16:36:59.519Z,13.77
2018-10-12T16:39:31.931Z,9.80
2018-10-12T16:42:05.742Z,11.20
2018-10-12T16:44:38.999Z,12.17
2018-10-12T16:47:11.735Z,10.63
2018-10-12T16:49:44.661Z,12.73
2018-10-12T16:52:18.450Z,10.50
2018-10-12T16:54:51.725Z,12.83
2018-10-12T16:57:32.131Z,11.47
2018-10-12T17:00:04.508Z,9.67
2018-10-12T17:02:37.340Z,9.37
2018-10-12T17:05:10.104Z,10.47
2018-10-12T17:07:42.856Z,31.87
2018-10-12T17:10:15.189Z,19.00
2018-10-12T17:12:47.949Z,17.43
2018-10-12T17:15:22.819Z,20.70
2018-10-12T17:17:57.013Z,28.90
2018-10-12T17:20:29.797Z,34.97
2018-10-12T17:23:03.452Z,15.07
2018-10-12T17:25:36.536Z,27.67
2018-10-12T17:28:09.713Z,12.57
2018-10-12T17:30:42.181Z,19.37
2018-10-12T17:33:14.465Z,19.40
2018-10-12T17:35:47.512Z,13.53
2018-10-12T17:38:20.312Z,12.33
2018-10-12T17:40:53.723Z,13.60
2018-10-12T17:43:26.615Z,14.73
2018-10-12T17:45:59.719Z,17.53
2018-10-12T17:48:32.509Z,13.10
2018-10-12T17:51:05.973Z,14.67
2018-10-12T17:53:38.748Z,15.27
2018-10-12T17:56:11.045Z,15.63
2018-10-12T17:58:44.214Z,13.33
2018-10-12T18:01:17.620Z,13.37
2018-10-12T18:03:50.386Z,14.10
2018-10-12T18:06:22.920Z,14.70
2018-10-12T18:08:55.770Z,13.23
2018-10-12T18:11:28.825Z,12.73
2018-10-12T18:14:04.793Z,13.57
2018-10-12T18:16:37.771Z,13.37
2018-10-12T18:19:10.718Z,18.30
2018-10-12T18:21:44.723Z,15.37
2018-10-12T18:24:18.498Z,13.30
2018-10-12T18:26:53.091Z,13.53
2018-10-12T18:29:25.939Z,14.33
2018-10-12T18:31:58.779Z,19.00
2018-10-12T18:34:31.624Z,14.97
2018-10-12T18:37:05.147Z,17.40
2018-10-12T18:39:38.197Z,18.47
2018-10-12T18:42:10.526Z,17.47
2018-10-12T18:44:43.196Z,17.20
2018-10-12T18:47:16.265Z,14.53
2018-10-12T18:49:48.804Z,16.17
2018-10-12T18:52:21.540Z,15.23
2018-10-12T18:54:54.216Z,15.47
2018-10-12T18:57:26.835Z,14.80
2018-10-12T19:00:01.451Z,19.07
2018-10-12T19:02:34.630Z,16.63
2018-10-12T19:05:07.703Z,16.90
2018-10-12T19:07:40.617Z,16.90
2018-10-12T19:10:14.270Z,19.57
2018-10-12T19:12:49.073Z,19.03
2018-10-12T19:15:24.749Z,21.00
2018-10-12T19:17:59.633Z,16.20
2018-10-12T19:20:33.143Z,16.27
2018-10-12T19:23:06.633Z,19.47
2018-10-12T19:25:40.972Z,17.50
2018-10-12T19:28:14.486Z,16.87
2018-10-12T19:30:48.611Z,17.63
2018-10-12T19:33:24.198Z,17.87
2018-10-12T19:35:58.112Z,17.80
2018-10-12T19:38:31.785Z,21.40
2018-10-12T19:41:07.052Z,19.67
2018-10-12T19:43:39.946Z,25.10
2018-10-12T19:46:14.333Z,17.33
2018-10-12T19:48:47.134Z,19.83
2018-10-12T19:51:21.188Z,17.33
2018-10-12T19:53:54.564Z,19.47
2018-10-12T19:56:28.408Z,20.50
2018-10-12T19:59:01.479Z,19.37
2018-10-12T20:01:35.144Z,21.03
2018-10-12T20:04:08.632Z,22.73
2018-10-12T20:06:42.341Z,18.40
2018-10-12T20:09:15.445Z,19.77
2018-10-12T20:11:48.829Z,18.63
2018-10-12T20:14:21.839Z,18.53
2018-10-12T20:16:55.475Z,23.93
2018-10-12T20:19:28.389Z,22.43
2018-10-12T20:22:01.348Z,20.23
2018-10-12T20:24:34.357Z,21.03
2018-10-12T20:27:09.342Z,20.60
2018-10-12T20:29:42.056Z,20.07
2018-10-12T20:32:17.969Z,22.03
2018-10-12T20:34:50.856Z,20.47
2018-10-12T20:37:23.650Z,22.00
2018-10-12T20:39:56.840Z,19.53
2018-10-12T20:42:30.366Z,21.23
2018-10-12T20:45:02.812Z,21.53
2018-10-12T20:47:35.824Z,22.13
2018-10-12T20:50:08.438Z,22.50
2018-10-12T20:52:41.839Z,24.70
2018-10-12T20:55:14.316Z,27.80
2018-10-12T20:57:48.498Z,22.67
2018-10-12T21:00:21.859Z,24.70
2018-10-12T21:02:55.278Z,24.13
2018-10-12T21:05:27.704Z,25.27
2018-10-12T21:08:01.757Z,27.07
2018-10-12T21:10:34.517Z,25.70
2018-10-12T21:13:07.991Z,25.10
2018-10-12T21:15:41.313Z,24.57
2018-10-12T21:18:14.874Z,25.97
2018-10-12T21:20:47.266Z,22.77
2018-10-12T21:23:20.232Z,21.87
2018-10-12T21:25:53.060Z,21.43
2018-10-12T21:28:26.364Z,24.80
2018-10-12T21:30:59.577Z,28.83
2018-10-12T21:33:32.419Z,24.27
2018-10-12T21:36:04.194Z,24.77
2018-10-12T21:38:35.980Z,25.80
2018-10-12T21:41:07.496Z,25.27
2018-10-12T21:43:38.579Z,28.13
2018-10-12T21:46:09.917Z,29.53
2018-10-12T21:48:41.476Z,28.73
2018-10-12T21:51:14.370Z,28.23
2018-10-12T21:53:45.821Z,32.43
2018-10-12T21:56:16.898Z,30.80
2018-10-12T21:58:48.396Z,26.90
2018-10-12T22:01:20.509Z,24.10
2018-10-12T22:03:52.613Z,26.30
2018-10-12T22:06:24.438Z,25.33
2018-10-12T22:09:01.066Z,26.90
2018-10-12T22:11:31.861Z,29.20
2018-10-12T22:14:04.199Z,29.13
2018-10-12T22:16:35.267Z,28.57
2018-10-12T22:19:07.988Z,27.90
2018-10-12T22:21:39.757Z,31.27
2018-10-12T22:24:10.866Z,29.23
2018-10-12T22:26:41.665Z,35.37
2018-10-12T22:29:12.561Z,31.10
2018-10-12T22:31:43.299Z,35.07
2018-10-12T22:34:14.494Z,35.57
2018-10-12T22:36:45.741Z,33.77
2018-10-12T22:39:17.745Z,30.87
2018-10-12T22:41:48.542Z,31.03
2018-10-12T22:44:19.551Z,31.53
2018-10-12T22:46:50.309Z,32.30
2018-10-12T22:49:21.082Z,30.90
2018-10-12T22:51:51.944Z,33.87
2018-10-12T22:54:29.236Z,36.10
2018-10-12T22:57:00.296Z,40.07
2018-10-12T22:59:32.556Z,38.33
2018-10-12T23:02:03.374Z,40.63
2018-10-12T23:04:34.125Z,43.83
2018-10-12T23:07:05.024Z,41.57
2018-10-12T23:09:36.082Z,44.80
2018-10-12T23:12:08.453Z,37.50
2018-10-12T23:14:39.524Z,36.57
2018-10-12T23:17:10.385Z,30.73
2018-10-12T23:19:41.161Z,33.47
2018-10-12T23:22:13.080Z,29.87
2018-10-12T23:24:44.087Z,29.90
2018-10-12T23:27:14.800Z,31.00
2018-10-12T23:29:45.599Z,28.40
2018-10-12T23:32:16.817Z,30.00
2018-10-12T23:34:48.722Z,27.53
2018-10-12T23:37:19.598Z,30.07
2018-10-12T23:39:50.589Z,28.67
2018-10-12T23:42:21.478Z,28.23
2018-10-12T23:44:52.215Z,27.87
2018-10-12T23:47:23.064Z,29.80
2018-10-12T23:49:53.745Z,26.97
2018-10-12T23:52:31.206Z,27.93
2018-10-12T23:55:02.268Z,26.97
2018-10-12T23:57:33.230Z,30.20
